Jalappa, Pennsylvania
Current Conditions -  °F | °C
As of 5:54 AM on Thursday 27 Nov 2014 (Local Time) from KRDG Reporting Station
Overcast Overcast  
Wind Chill: 34°   Ceiling: 4400
Heat Index: 34°   Visibility: 10mi
Dew Point: 29°   Wind: 3mph
Humidity: 82%   Direction: 310°NW
Pressure: 29.97"   Gusts: NA
Location:  40.5494°N, 75.999°W
Report Text: KRDG 271054Z AUTO 31003KT 10SM BKN044 OVC075 01/M02 A2997 RMK AO2 SNE01 SLP157 P0000 T00111017
Loading
Personal Weather Stations






























Interactive Weather Map New forecast layout! Learn more

10-Day Weather Forecast

Advertisements
Track Severe Weather on mobile